sensor_id;sensor_type;location;lat;lon;timestamp;pressure;altitude;pressure_sealevel;temperature;humidity
38558;BME280;24333;42.626;23.308;2023-02-23T03:17:45;91984.09;;;4.03;100.00
38558;BME280;24333;42.626;23.308;2023-02-23T03:20:39;92015.69;;;4.15;100.00
38558;BME280;24333;42.626;23.308;2023-02-23T03:24:01;92020.41;;;4.18;100.00
38558;BME280;24333;42.626;23.308;2023-02-23T03:27:03;92029.63;;;4.17;100.00
38558;BME280;24333;42.626;23.308;2023-02-23T03:29:57;92012.44;;;4.09;100.00
38558;BME280;24333;42.626;23.308;2023-02-23T03:58:38;92010.19;;;3.86;100.00
38558;BME280;24333;42.626;23.308;2023-02-23T04:01:24;92039.97;;;4.02;100.00
38558;BME280;24333;42.626;23.308;2023-02-23T04:07:51;92016.59;;;3.82;100.00
38558;BME280;24333;42.626;23.308;2023-02-23T04:10:53;92013.56;;;3.83;100.00
38558;BME280;24333;42.626;23.308;2023-02-23T04:19:11;91990.88;;;3.72;100.00
38558;BME280;24333;42.626;23.308;2023-02-23T05:18:31;92026.34;;;3.49;100.00
38558;BME280;24333;42.626;23.308;2023-02-23T05:21:04;92027.47;;;3.48;100.00
38558;BME280;24333;42.626;23.308;2023-02-23T05:23:31;92024.88;;;3.39;100.00
38558;BME280;24333;42.626;23.308;2023-02-23T05:26:05;92050.06;;;3.56;100.00
38558;BME280;24333;42.626;23.308;2023-02-23T05:28:34;92029.25;;;3.44;100.00
38558;BME280;24333;42.626;23.308;2023-02-23T05:31:01;92053.22;;;3.58;100.00
38558;BME280;24333;42.626;23.308;2023-02-23T05:33:28;92057.47;;;3.59;100.00
38558;BME280;24333;42.626;23.308;2023-02-23T05:35:54;92058.59;;;3.58;100.00
38558;BME280;24333;42.626;23.308;2023-02-23T05:38:19;92035.78;;;3.43;100.00
38558;BME280;24333;42.626;23.308;2023-02-23T05:40:46;92055.91;;;3.58;100.00
38558;BME280;24333;42.626;23.308;2023-02-23T05:43:11;92064.91;;;3.62;100.00
38558;BME280;24333;42.626;23.308;2023-02-23T05:45:41;92037.78;;;3.46;100.00
38558;BME280;24333;42.626;23.308;2023-02-23T05:48:07;92046.78;;;3.50;100.00
38558;BME280;24333;42.626;23.308;2023-02-23T05:50:33;92075.69;;;3.62;100.00
38558;BME280;24333;42.626;23.308;2023-02-23T05:52:58;92067.03;;;3.56;100.00
38558;BME280;24333;42.626;23.308;2023-02-23T05:55:24;92063.31;;;3.61;100.00
38558;BME280;24333;42.626;23.308;2023-02-23T05:57:50;92072.00;;;3.67;100.00
38558;BME280;24333;42.626;23.308;2023-02-23T06:00:15;92072.09;;;3.70;100.00
38558;BME280;24333;42.626;23.308;2023-02-23T06:02:42;92086.72;;;3.82;100.00
38558;BME280;24333;42.626;23.308;2023-02-23T06:05:08;92082.69;;;3.88;100.00
38558;BME280;24333;42.626;23.308;2023-02-23T06:07:34;92078.19;;;3.92;100.00
38558;BME280;24333;42.626;23.308;2023-02-23T06:09:59;92087.09;;;4.05;100.00
38558;BME280;24333;42.626;23.308;2023-02-23T06:12:26;92082.72;;;4.13;100.00
38558;BME280;24333;42.626;23.308;2023-02-23T06:14:51;92069.97;;;4.13;100.00
38558;BME280;24333;42.626;23.308;2023-02-23T06:17:17;92072.91;;;4.20;100.00
38558;BME280;24333;42.626;23.308;2023-02-23T06:19:42;92081.09;;;4.37;100.00
38558;BME280;24333;42.626;23.308;2023-02-23T06:22:08;92087.75;;;4.39;100.00
38558;BME280;24333;42.626;23.308;2023-02-23T06:24:33;92090.66;;;4.46;100.00
38558;BME280;24333;42.626;23.308;2023-02-23T06:26:59;92089.78;;;4.42;100.00
38558;BME280;24333;42.626;23.308;2023-02-23T06:29:25;92090.56;;;4.43;100.00
38558;BME280;24333;42.626;23.308;2023-02-23T06:31:50;92107.06;;;4.54;100.00
38558;BME280;24333;42.626;23.308;2023-02-23T06:34:15;92097.84;;;4.55;100.00
38558;BME280;24333;42.626;23.308;2023-02-23T06:36:41;92089.41;;;4.56;100.00
38558;BME280;24333;42.626;23.308;2023-02-23T06:39:06;92093.41;;;4.75;100.00
38558;BME280;24333;42.626;23.308;2023-02-23T06:41:33;92091.97;;;4.77;100.00
38558;BME280;24333;42.626;23.308;2023-02-23T06:43:59;92103.28;;;4.96;100.00
38558;BME280;24333;42.626;23.308;2023-02-23T06:46:25;92103.94;;;5.05;100.00
38558;BME280;24333;42.626;23.308;2023-02-23T06:48:54;92104.03;;;5.09;100.00
38558;BME280;24333;42.626;23.308;2023-02-23T06:51:19;92109.75;;;5.19;100.00
38558;BME280;24333;42.626;23.308;2023-02-23T06:53:45;92104.66;;;5.30;100.00
38558;BME280;24333;42.626;23.308;2023-02-23T06:56:10;92101.69;;;5.35;100.00
38558;BME280;24333;42.626;23.308;2023-02-23T06:58:38;92112.78;;;5.46;100.00
38558;BME280;24333;42.626;23.308;2023-02-23T07:01:04;92113.75;;;5.54;100.00
38558;BME280;24333;42.626;23.308;2023-02-23T07:03:29;92092.97;;;5.42;100.00
38558;BME280;24333;42.626;23.308;2023-02-23T07:05:55;92120.94;;;5.62;100.00
38558;BME280;24333;42.626;23.308;2023-02-23T07:08:20;92106.69;;;5.49;100.00
38558;BME280;24333;42.626;23.308;2023-02-23T07:10:45;92097.25;;;5.43;100.00
38558;BME280;24333;42.626;23.308;2023-02-23T07:13:11;92118.16;;;5.59;100.00
38558;BME280;24333;42.626;23.308;2023-02-23T07:15:38;92115.19;;;5.64;100.00
38558;BME280;24333;42.626;23.308;2023-02-23T07:18:04;92107.59;;;5.54;100.00
38558;BME280;24333;42.626;23.308;2023-02-23T07:20:30;92105.31;;;5.56;100.00
38558;BME280;24333;42.626;23.308;2023-02-23T07:22:56;92120.44;;;5.73;100.00
38558;BME280;24333;42.626;23.308;2023-02-23T07:25:21;92125.25;;;5.79;100.00
38558;BME280;24333;42.626;23.308;2023-02-23T07:27:47;92111.34;;;5.65;100.00
38558;BME280;24333;42.626;23.308;2023-02-23T07:30:12;92104.22;;;5.73;100.00
38558;BME280;24333;42.626;23.308;2023-02-23T07:32:38;92118.28;;;5.94;100.00
38558;BME280;24333;42.626;23.308;2023-02-23T07:35:04;92122.41;;;6.04;100.00
38558;BME280;24333;42.626;23.308;2023-02-23T07:37:30;92117.44;;;6.06;100.00
38558;BME280;24333;42.626;23.308;2023-02-23T07:39:56;92097.97;;;6.01;100.00
38558;BME280;24333;42.626;23.308;2023-02-23T07:42:21;92095.06;;;5.93;100.00
38558;BME280;24333;42.626;23.308;2023-02-23T07:44:46;92108.34;;;6.15;100.00
38558;BME280;24333;42.626;23.308;2023-02-23T07:47:12;92121.28;;;6.38;100.00
38558;BME280;24333;42.626;23.308;2023-02-23T07:49:37;92105.84;;;6.22;100.00
38558;BME280;24333;42.626;23.308;2023-02-23T07:52:03;92100.22;;;6.31;100.00
38558;BME280;24333;42.626;23.308;2023-02-23T07:54:28;92109.59;;;6.33;100.00
38558;BME280;24333;42.626;23.308;2023-02-23T07:56:53;92082.94;;;6.19;100.00
38558;BME280;24333;42.626;23.308;2023-02-23T07:59:19;92091.50;;;6.38;100.00
38558;BME280;24333;42.626;23.308;2023-02-23T08:01:44;92107.97;;;6.64;100.00
38558;BME280;24333;42.626;23.308;2023-02-23T08:04:10;92114.97;;;6.65;100.00
38558;BME280;24333;42.626;23.308;2023-02-23T08:06:35;92107.56;;;6.46;100.00
38558;BME280;24333;42.626;23.308;2023-02-23T08:09:03;92120.03;;;6.67;100.00
38558;BME280;24333;42.626;23.308;2023-02-23T08:11:28;92099.91;;;6.68;100.00
38558;BME280;24333;42.626;23.308;2023-02-23T08:13:55;92114.56;;;6.83;100.00
38558;BME280;24333;42.626;23.308;2023-02-23T08:16:29;92105.09;;;6.73;100.00
38558;BME280;24333;42.626;23.308;2023-02-23T08:18:59;92107.28;;;6.87;100.00
38558;BME280;24333;42.626;23.308;2023-02-23T08:21:26;92113.75;;;6.99;100.00
38558;BME280;24333;42.626;23.308;2023-02-23T08:23:53;92120.56;;;7.08;100.00
38558;BME280;24333;42.626;23.308;2023-02-23T08:26:19;92110.63;;;7.16;100.00
38558;BME280;24333;42.626;23.308;2023-02-23T08:28:45;92115.13;;;7.08;100.00
38558;BME280;24333;42.626;23.308;2023-02-23T08:31:12;92120.41;;;7.21;100.00
38558;BME280;24333;42.626;23.308;2023-02-23T08:33:38;92121.91;;;7.18;99.18
38558;BME280;24333;42.626;23.308;2023-02-23T08:36:07;92128.34;;;7.30;99.78
38558;BME280;24333;42.626;23.308;2023-02-23T08:38:33;92128.34;;;7.49;98.51
38558;BME280;24333;42.626;23.308;2023-02-23T08:41:02;92104.59;;;7.43;94.94
38558;BME280;24333;42.626;23.308;2023-02-23T08:43:28;92126.25;;;7.62;95.68
38558;BME280;24333;42.626;23.308;2023-02-23T08:45:53;92128.63;;;7.64;92.96
38558;BME280;24333;42.626;23.308;2023-02-23T08:48:19;92125.25;;;7.71;92.87
38558;BME280;24333;42.626;23.308;2023-02-23T08:50:47;92127.41;;;7.81;90.77
38558;BME280;24333;42.626;23.308;2023-02-23T09:06:13;92113.84;;;8.51;88.62
38558;BME280;24333;42.626;23.308;2023-02-23T09:13:50;92115.03;;;8.77;78.71
38558;BME280;24333;42.626;23.308;2023-02-23T09:16:16;92111.84;;;8.98;77.88
38558;BME280;24333;42.626;23.308;2023-02-23T09:18:42;92121.31;;;9.11;76.55
38558;BME280;24333;42.626;23.308;2023-02-23T09:21:14;92118.25;;;9.13;77.21
38558;BME280;24333;42.626;23.308;2023-02-23T09:23:43;92105.16;;;9.22;76.03
38558;BME280;24333;42.626;23.308;2023-02-23T09:26:11;92096.31;;;9.29;74.43
38558;BME280;24333;42.626;23.308;2023-02-23T09:28:59;92113.50;;;9.37;73.46
38558;BME280;24333;42.626;23.308;2023-02-23T09:31:25;92115.03;;;9.34;72.37
38558;BME280;24333;42.626;23.308;2023-02-23T09:33:52;92107.41;;;9.47;74.64
38558;BME280;24333;42.626;23.308;2023-02-23T09:43:31;92135.94;;;9.95;68.55
38558;BME280;24333;42.626;23.308;2023-02-23T09:49:03;92130.03;;;10.27;72.28
38558;BME280;24333;42.626;23.308;2023-02-23T09:51:37;92117.00;;;10.44;70.25
38558;BME280;24333;42.626;23.308;2023-02-23T09:54:06;92102.84;;;10.31;65.05
38558;BME280;24333;42.626;23.308;2023-02-23T09:59:16;92088.81;;;10.32;66.49
38558;BME280;24333;42.626;23.308;2023-02-23T10:07:44;92104.94;;;10.48;65.02
38558;BME280;24333;42.626;23.308;2023-02-23T10:19:55;92121.50;;;11.30;61.26
38558;BME280;24333;42.626;23.308;2023-02-23T10:22:24;92116.88;;;11.45;60.60
38558;BME280;24333;42.626;23.308;2023-02-23T10:25:12;92114.59;;;11.61;59.98
38558;BME280;24333;42.626;23.308;2023-02-23T10:27:45;92104.41;;;11.47;59.53
38558;BME280;24333;42.626;23.308;2023-02-23T11:09:47;92072.66;;;12.96;52.99
38558;BME280;24333;42.626;23.308;2023-02-23T11:18:00;92074.66;;;12.74;52.97
38558;BME280;24333;42.626;23.308;2023-02-23T11:20:34;92080.50;;;12.83;52.63
38558;BME280;24333;42.626;23.308;2023-02-23T11:23:10;92065.53;;;13.24;52.56
38558;BME280;24333;42.626;23.308;2023-02-23T11:25:41;92061.59;;;13.47;53.25
38558;BME280;24333;42.626;23.308;2023-02-23T11:28:18;92061.16;;;13.59;50.80
38558;BME280;24333;42.626;23.308;2023-02-23T11:30:51;92064.66;;;13.71;50.93
38558;BME280;24333;42.626;23.308;2023-02-23T11:33:27;92052.13;;;13.66;50.06
38558;BME280;24333;42.626;23.308;2023-02-23T11:36:00;92051.38;;;13.66;50.46
38558;BME280;24333;42.626;23.308;2023-02-23T11:41:41;92058.41;;;13.59;48.50
38558;BME280;24333;42.626;23.308;2023-02-23T11:44:19;92045.88;;;13.66;48.26
38558;BME280;24333;42.626;23.308;2023-02-23T11:46:55;92055.63;;;13.70;48.21
38558;BME280;24333;42.626;23.308;2023-02-23T11:49:28;92044.22;;;13.86;48.83
38558;BME280;24333;42.626;23.308;2023-02-23T11:52:13;92050.09;;;13.81;47.51
38558;BME280;24333;42.626;23.308;2023-02-23T11:55:15;92051.19;;;14.02;48.15
38558;BME280;24333;42.626;23.308;2023-02-23T11:57:43;92043.78;;;13.92;47.80
38558;BME280;24333;42.626;23.308;2023-02-23T12:00:21;92039.47;;;13.94;47.80
38558;BME280;24333;42.626;23.308;2023-02-23T12:02:49;92043.38;;;13.97;47.25
38558;BME280;24333;42.626;23.308;2023-02-23T12:05:22;92044.84;;;14.16;50.89
38558;BME280;24333;42.626;23.308;2023-02-23T12:07:56;92043.53;;;14.35;50.85
38558;BME280;24333;42.626;23.308;2023-02-23T12:10:36;92035.06;;;14.64;47.98
38558;BME280;24333;42.626;23.308;2023-02-23T12:16:23;92040.06;;;15.18;50.83
38558;BME280;24333;42.626;23.308;2023-02-23T12:21:44;92030.97;;;15.29;47.67
38558;BME280;24333;42.626;23.308;2023-02-23T12:24:43;92008.75;;;15.12;44.65
38558;BME280;24333;42.626;23.308;2023-02-23T12:27:21;92038.66;;;15.41;49.10
38558;BME280;24333;42.626;23.308;2023-02-23T12:38:01;92034.56;;;15.22;48.86
38558;BME280;24333;42.626;23.308;2023-02-23T12:40:32;92030.66;;;15.54;51.97
38558;BME280;24333;42.626;23.308;2023-02-23T12:43:36;92019.53;;;15.30;45.00
38558;BME280;24333;42.626;23.308;2023-02-23T12:46:40;92031.84;;;15.53;45.09
38558;BME280;24333;42.626;23.308;2023-02-23T12:49:29;92032.19;;;15.59;46.68
38558;BME280;24333;42.626;23.308;2023-02-23T12:52:02;92029.06;;;15.57;46.73
38558;BME280;24333;42.626;23.308;2023-02-23T13:01:25;92029.78;;;15.96;45.11
38558;BME280;24333;42.626;23.308;2023-02-23T13:04:06;92022.88;;;15.49;47.75
38558;BME280;24333;42.626;23.308;2023-02-23T13:06:53;92020.84;;;15.57;49.67
38558;BME280;24333;42.626;23.308;2023-02-23T13:09:33;92016.22;;;15.46;46.96
38558;BME280;24333;42.626;23.308;2023-02-23T13:21:29;92026.03;;;15.13;46.50
38558;BME280;24333;42.626;23.308;2023-02-23T13:30:54;92013.50;;;15.12;50.22
38558;BME280;24333;42.626;23.308;2023-02-23T13:33:26;92009.84;;;15.22;49.67
38558;BME280;24333;42.626;23.308;2023-02-23T13:35:56;92013.38;;;15.23;48.69
38558;BME280;24333;42.626;23.308;2023-02-23T13:41:14;92006.84;;;15.44;48.42
38558;BME280;24333;42.626;23.308;2023-02-23T13:46:39;92024.97;;;15.69;48.79
38558;BME280;24333;42.626;23.308;2023-02-23T14:05:27;92003.00;;;15.69;45.96
38558;BME280;24333;42.626;23.308;2023-02-23T14:08:02;92016.69;;;15.76;46.89
38558;BME280;24333;42.626;23.308;2023-02-23T14:10:40;91992.53;;;15.60;45.28
38558;BME280;24333;42.626;23.308;2023-02-23T14:13:40;92009.78;;;15.60;47.53
38558;BME280;24333;42.626;23.308;2023-02-23T14:16:21;92028.63;;;15.62;46.61
38558;BME280;24333;42.626;23.308;2023-02-23T14:19:08;92030.56;;;15.61;45.54
38558;BME280;24333;42.626;23.308;2023-02-23T14:21:56;92022.44;;;15.54;46.32
38558;BME280;24333;42.626;23.308;2023-02-23T14:24:24;92013.91;;;15.45;46.57
38558;BME280;24333;42.626;23.308;2023-02-23T14:29:39;92009.47;;;15.20;46.53
38558;BME280;24333;42.626;23.308;2023-02-23T14:39:42;91999.41;;;15.06;47.31
38558;BME280;24333;42.626;23.308;2023-02-23T14:42:08;92009.56;;;15.09;46.98
38558;BME280;24333;42.626;23.308;2023-02-23T14:44:37;92005.69;;;15.07;47.71
38558;BME280;24333;42.626;23.308;2023-02-23T14:47:12;92006.06;;;15.09;49.60
38558;BME280;24333;42.626;23.308;2023-02-23T14:49:44;92001.97;;;14.86;48.44
38558;BME280;24333;42.626;23.308;2023-02-23T14:52:35;92011.53;;;14.70;49.71
38558;BME280;24333;42.626;23.308;2023-02-23T14:57:38;92005.59;;;14.26;49.70
38558;BME280;24333;42.626;23.308;2023-02-23T15:02:40;91998.72;;;14.00;50.64
38558;BME280;24333;42.626;23.308;2023-02-23T15:05:17;92003.84;;;13.91;51.63
38558;BME280;24333;42.626;23.308;2023-02-23T15:07:43;92005.91;;;13.79;51.86
38558;BME280;24333;42.626;23.308;2023-02-23T15:10:25;92005.16;;;13.71;52.09
38558;BME280;24333;42.626;23.308;2023-02-23T15:12:52;92008.38;;;13.52;52.97
38558;BME280;24333;42.626;23.308;2023-02-23T15:15:19;91992.88;;;13.09;54.25
38558;BME280;24333;42.626;23.308;2023-02-23T15:17:51;91996.03;;;12.93;53.75
38558;BME280;24333;42.626;23.308;2023-02-23T15:20:20;92007.03;;;12.71;54.49
38558;BME280;24333;42.626;23.308;2023-02-23T15:22:55;92018.78;;;12.57;55.20
38558;BME280;24333;42.626;23.308;2023-02-23T15:25:34;92023.88;;;12.33;55.54
38558;BME280;24333;42.626;23.308;2023-02-23T15:28:30;92021.91;;;12.05;56.58
38558;BME280;24333;42.626;23.308;2023-02-23T15:30:59;92031.19;;;11.82;57.77
38558;BME280;24333;42.626;23.308;2023-02-23T15:33:26;92029.56;;;11.59;58.68
38558;BME280;24333;42.626;23.308;2023-02-23T15:38:39;92031.88;;;11.50;58.66
38558;BME280;24333;42.626;23.308;2023-02-23T15:41:10;92024.78;;;11.31;59.78
38558;BME280;24333;42.626;23.308;2023-02-23T15:43:41;92027.50;;;11.23;60.04
38558;BME280;24333;42.626;23.308;2023-02-23T15:46:07;92055.63;;;11.35;60.64
38558;BME280;24333;42.626;23.308;2023-02-23T15:48:44;92036.06;;;11.18;60.49
38558;BME280;24333;42.626;23.308;2023-02-23T15:51:33;92056.34;;;11.24;61.38
38558;BME280;24333;42.626;23.308;2023-02-23T15:54:02;92051.22;;;11.08;61.25
38558;BME280;24333;42.626;23.308;2023-02-23T15:56:35;92057.78;;;11.00;61.02
38558;BME280;24333;42.626;23.308;2023-02-23T16:19:43;92046.19;;;10.06;64.79
38558;BME280;24333;42.626;23.308;2023-02-23T16:22:20;92045.72;;;10.00;64.77
38558;BME280;24333;42.626;23.308;2023-02-23T16:24:57;92042.59;;;9.98;65.41
38558;BME280;24333;42.626;23.308;2023-02-23T16:27:25;92056.59;;;9.96;65.39
38558;BME280;24333;42.626;23.308;2023-02-23T16:30:04;92072.97;;;10.00;65.54
38558;BME280;24333;42.626;23.308;2023-02-23T16:43:08;92076.25;;;9.75;67.78
38558;BME280;24333;42.626;23.308;2023-02-23T16:45:34;92048.44;;;9.59;68.04
38558;BME280;24333;42.626;23.308;2023-02-23T16:48:00;92076.47;;;9.63;69.24
38558;BME280;24333;42.626;23.308;2023-02-23T16:50:28;92074.16;;;9.65;68.91
38558;BME280;24333;42.626;23.308;2023-02-23T16:52:54;92080.84;;;9.71;68.64
38558;BME280;24333;42.626;23.308;2023-02-23T16:55:25;92083.47;;;9.64;69.34
38558;BME280;24333;42.626;23.308;2023-02-23T16:58:01;92075.72;;;9.62;69.23
38558;BME280;24333;42.626;23.308;2023-02-23T17:00:29;92075.72;;;9.62;69.16
38558;BME280;24333;42.626;23.308;2023-02-23T17:02:57;92078.72;;;9.53;69.43
38558;BME280;24333;42.626;23.308;2023-02-23T17:05:25;92079.53;;;9.58;69.32
38558;BME280;24333;42.626;23.308;2023-02-23T17:38:53;92076.78;;;9.20;77.39
38558;BME280;24333;42.626;23.308;2023-02-23T17:41:23;92087.94;;;9.15;78.81
38558;BME280;24333;42.626;23.308;2023-02-23T17:43:50;92081.00;;;8.87;83.01
38558;BME280;24333;42.626;23.308;2023-02-23T17:46:15;92074.66;;;8.79;84.53
38558;BME280;24333;42.626;23.308;2023-02-23T17:48:41;92098.59;;;8.96;85.52
38558;BME280;24333;42.626;23.308;2023-02-23T17:51:12;92091.88;;;8.87;85.71
38558;BME280;24333;42.626;23.308;2023-02-23T18:06:36;92053.75;;;8.56;90.26
38558;BME280;24333;42.626;23.308;2023-02-23T18:09:02;92072.75;;;8.52;93.70
38558;BME280;24333;42.626;23.308;2023-02-23T18:11:39;92052.78;;;8.45;94.99
38558;BME280;24333;42.626;23.308;2023-02-23T18:14:05;92073.16;;;8.55;95.28
38558;BME280;24333;42.626;23.308;2023-02-23T18:16:32;92067.22;;;8.49;95.22
38558;BME280;24333;42.626;23.308;2023-02-23T18:18:59;92058.47;;;8.36;97.20
38558;BME280;24333;42.626;23.308;2023-02-23T18:21:26;92059.13;;;8.29;97.31
38558;BME280;24333;42.626;23.308;2023-02-23T18:23:51;92053.72;;;8.29;96.97
38558;BME280;24333;42.626;23.308;2023-02-23T18:26:19;92065.84;;;8.35;96.65
38558;BME280;24333;42.626;23.308;2023-02-23T18:28:45;92091.75;;;8.52;96.44
38558;BME280;24333;42.626;23.308;2023-02-23T18:31:16;92096.06;;;8.53;98.18
38558;BME280;24333;42.626;23.308;2023-02-23T18:33:43;92093.69;;;8.52;98.57
38558;BME280;24333;42.626;23.308;2023-02-23T18:36:33;92078.75;;;8.42;99.21
38558;BME280;24333;42.626;23.308;2023-02-23T18:39:05;92088.13;;;8.45;99.58
38558;BME280;24333;42.626;23.308;2023-02-23T18:41:38;92072.50;;;8.15;100.00
38558;BME280;24333;42.626;23.308;2023-02-23T18:44:09;92082.31;;;8.23;100.00
38558;BME280;24333;42.626;23.308;2023-02-23T18:46:35;92090.06;;;8.21;100.00
38558;BME280;24333;42.626;23.308;2023-02-23T18:49:00;92096.72;;;8.23;100.00
38558;BME280;24333;42.626;23.308;2023-02-23T18:51:27;92092.13;;;8.04;100.00
38558;BME280;24333;42.626;23.308;2023-02-23T18:53:54;92096.09;;;8.10;100.00
38558;BME280;24333;42.626;23.308;2023-02-23T18:56:22;92121.09;;;8.20;100.00
38558;BME280;24333;42.626;23.308;2023-02-23T18:58:53;92120.97;;;8.13;100.00
38558;BME280;24333;42.626;23.308;2023-02-23T19:01:21;92131.41;;;8.10;100.00
38558;BME280;24333;42.626;23.308;2023-02-23T19:03:48;92117.13;;;7.94;100.00
38558;BME280;24333;42.626;23.308;2023-02-23T19:06:15;92120.53;;;7.87;100.00
38558;BME280;24333;42.626;23.308;2023-02-23T19:08:42;92116.59;;;7.85;100.00
38558;BME280;24333;42.626;23.308;2023-02-23T19:11:09;92080.50;;;7.61;100.00
38558;BME280;24333;42.626;23.308;2023-02-23T19:13:35;92125.75;;;7.76;100.00
38558;BME280;24333;42.626;23.308;2023-02-23T19:16:05;92121.03;;;7.73;100.00
38558;BME280;24333;42.626;23.308;2023-02-23T19:18:41;92144.16;;;7.87;100.00
38558;BME280;24333;42.626;23.308;2023-02-23T19:21:14;92138.59;;;7.79;100.00
38558;BME280;24333;42.626;23.308;2023-02-23T19:23:41;92148.38;;;7.84;100.00
38558;BME280;24333;42.626;23.308;2023-02-23T19:26:09;92145.16;;;7.78;100.00
38558;BME280;24333;42.626;23.308;2023-02-23T19:28:35;92128.47;;;7.57;100.00
38558;BME280;24333;42.626;23.308;2023-02-23T19:31:06;92149.84;;;7.58;100.00
38558;BME280;24333;42.626;23.308;2023-02-23T19:33:32;92161.63;;;7.66;100.00
38558;BME280;24333;42.626;23.308;2023-02-23T19:46:14;92167.84;;;7.47;100.00
38558;BME280;24333;42.626;23.308;2023-02-23T19:48:47;92159.38;;;7.32;100.00
38558;BME280;24333;42.626;23.308;2023-02-23T19:53:52;92148.59;;;7.16;100.00
38558;BME280;24333;42.626;23.308;2023-02-23T19:56:19;92172.72;;;7.21;100.00
38558;BME280;24333;42.626;23.308;2023-02-23T19:58:44;92161.28;;;7.12;100.00
38558;BME280;24333;42.626;23.308;2023-02-23T20:01:15;92154.22;;;7.07;100.00
38558;BME280;24333;42.626;23.308;2023-02-23T20:03:45;92165.56;;;7.13;100.00
38558;BME280;24333;42.626;23.308;2023-02-23T20:06:13;92167.41;;;7.09;100.00
38558;BME280;24333;42.626;23.308;2023-02-23T20:08:41;92162.41;;;7.11;100.00
38558;BME280;24333;42.626;23.308;2023-02-23T20:11:07;92150.84;;;6.94;100.00
38558;BME280;24333;42.626;23.308;2023-02-23T20:13:33;92171.31;;;6.92;100.00
38558;BME280;24333;42.626;23.308;2023-02-23T20:16:02;92153.16;;;6.76;100.00
38558;BME280;24333;42.626;23.308;2023-02-23T20:18:28;92166.59;;;6.73;100.00
38558;BME280;24333;42.626;23.308;2023-02-23T20:20:53;92150.38;;;6.57;100.00
38558;BME280;24333;42.626;23.308;2023-02-23T20:23:19;92164.88;;;6.64;100.00
38558;BME280;24333;42.626;23.308;2023-02-23T20:25:44;92172.22;;;6.64;100.00
38558;BME280;24333;42.626;23.308;2023-02-23T20:28:09;92176.16;;;6.67;100.00
38558;BME280;24333;42.626;23.308;2023-02-23T20:30:35;92167.66;;;6.52;100.00
38558;BME280;24333;42.626;23.308;2023-02-23T20:33:04;92155.47;;;6.42;100.00
38558;BME280;24333;42.626;23.308;2023-02-23T20:35:31;92174.16;;;6.47;100.00
38558;BME280;24333;42.626;23.308;2023-02-23T20:38:00;92169.78;;;6.43;100.00
38558;BME280;24333;42.626;23.308;2023-02-23T20:40:30;92153.94;;;6.29;100.00
38558;BME280;24333;42.626;23.308;2023-02-23T20:42:57;92171.59;;;6.39;100.00
38558;BME280;24333;42.626;23.308;2023-02-23T20:45:23;92173.88;;;6.36;100.00
38558;BME280;24333;42.626;23.308;2023-02-23T20:47:50;92169.59;;;6.35;100.00
38558;BME280;24333;42.626;23.308;2023-02-23T20:50:33;92159.81;;;6.31;100.00
38558;BME280;24333;42.626;23.308;2023-02-23T20:53:12;92166.78;;;6.32;100.00
38558;BME280;24333;42.626;23.308;2023-02-23T20:56:15;92118.63;;;5.93;100.00
38558;BME280;24333;42.626;23.308;2023-02-23T20:59:25;92145.00;;;5.96;100.00
38558;BME280;24333;42.626;23.308;2023-02-23T21:01:58;92132.16;;;5.93;100.00
38558;BME280;24333;42.626;23.308;2023-02-23T21:07:14;92138.72;;;5.92;100.00
38558;BME280;24333;42.626;23.308;2023-02-23T21:48:35;92171.97;;;5.92;100.00
38558;BME280;24333;42.626;23.308;2023-02-23T21:51:05;92182.78;;;5.92;100.00
38558;BME280;24333;42.626;23.308;2023-02-23T21:53:32;92182.78;;;5.92;100.00
38558;BME280;24333;42.626;23.308;2023-02-23T21:56:03;92169.44;;;5.84;100.00
38558;BME280;24333;42.626;23.308;2023-02-23T21:58:29;92177.09;;;5.82;100.00
38558;BME280;24333;42.626;23.308;2023-02-23T22:01:09;92175.78;;;5.75;100.00
